createdAt,value
2019-03-11T00:00:47.166Z,58.50
2019-03-11T00:03:16.557Z,58.70
2019-03-11T00:05:45.900Z,59.60
2019-03-11T00:08:15.192Z,59.60
2019-03-11T00:10:44.503Z,60.60
2019-03-11T00:13:13.819Z,61.20
2019-03-11T00:15:43.112Z,62.50
2019-03-11T00:18:12.441Z,61.20
2019-03-11T00:20:41.773Z,63.20
2019-03-11T00:23:11.093Z,63.60
2019-03-11T00:25:40.398Z,63.30
2019-03-11T00:28:09.716Z,66.20
2019-03-11T00:30:39.095Z,66.20
2019-03-11T00:33:08.384Z,69.70
2019-03-11T00:35:37.710Z,67.50
2019-03-11T00:38:06.999Z,68.20
2019-03-11T00:40:36.325Z,70.50
2019-03-11T00:43:06.655Z,66.70
2019-03-11T00:45:35.976Z,70.90
2019-03-11T00:48:07.980Z,74.20
2019-03-11T00:50:37.284Z,71.90
2019-03-11T00:53:06.616Z,69.70
2019-03-11T00:55:35.924Z,64.60
2019-03-11T00:58:05.300Z,63.20
2019-03-11T01:00:38.219Z,60.80
2019-03-11T01:03:07.680Z,62.70
2019-03-11T01:05:37.080Z,62.10
2019-03-11T01:08:06.468Z,58.40
2019-03-11T01:10:35.768Z,58.40
2019-03-11T01:13:05.423Z,59.70
2019-03-11T01:15:34.724Z,59.60
2019-03-11T01:18:04.047Z,59.20
2019-03-11T01:20:33.352Z,58.10
2019-03-11T01:23:02.686Z,59.10
2019-03-11T01:25:51.351Z,58.20
2019-03-11T01:28:20.704Z,57.50
2019-03-11T01:30:50.021Z,58.40
2019-03-11T01:33:19.340Z,58.80
2019-03-11T01:35:48.654Z,59.30
2019-03-11T01:38:17.988Z,58.70
2019-03-11T01:40:48.933Z,60.40
2019-03-11T01:43:21.245Z,61.00
2019-03-11T01:45:49.271Z,61.80
2019-03-11T01:48:18.576Z,60.70
2019-03-11T01:50:47.875Z,59.90
2019-03-11T01:53:18.546Z,62.10
2019-03-11T01:55:47.896Z,62.90
2019-03-11T01:58:17.215Z,63.10
2019-03-11T02:00:46.605Z,62.60
2019-03-11T02:03:15.978Z,62.60
2019-03-11T02:05:45.272Z,62.90
2019-03-11T02:08:14.589Z,64.00
2019-03-11T02:10:43.899Z,64.60
2019-03-11T02:13:13.267Z,67.80
2019-03-11T02:15:42.612Z,67.20
2019-03-11T02:18:13.796Z,69.10
2019-03-11T02:20:44.766Z,69.80
2019-03-11T02:23:15.608Z,70.20
2019-03-11T02:25:46.929Z,69.50
2019-03-11T02:28:16.167Z,69.40
2019-03-11T02:30:45.491Z,70.30
2019-03-11T02:33:14.784Z,68.00
2019-03-11T02:35:44.244Z,66.90
2019-03-11T02:38:13.577Z,66.20
2019-03-11T02:40:42.905Z,66.60
2019-03-11T02:43:12.188Z,67.30
2019-03-11T02:45:41.658Z,66.90
2019-03-11T02:48:10.952Z,69.20
2019-03-11T02:50:40.297Z,68.60
2019-03-11T02:53:09.592Z,68.90
2019-03-11T02:55:51.463Z,67.10
2019-03-11T02:58:33.326Z,65.80
2019-03-11T03:01:14.965Z,67.20
2019-03-11T03:03:51.412Z,65.60
2019-03-11T03:06:20.797Z,65.80
2019-03-11T03:08:50.102Z,66.20
2019-03-11T03:11:19.417Z,65.90
2019-03-11T03:14:01.242Z,66.00
2019-03-11T03:16:34.786Z,65.50
2019-03-11T03:19:03.102Z,66.00
2019-03-11T03:21:32.440Z,65.40
2019-03-11T03:24:01.767Z,64.40
2019-03-11T03:26:31.068Z,64.80
2019-03-11T03:29:00.389Z,63.10
2019-03-11T03:31:29.668Z,63.40
2019-03-11T03:33:58.977Z,62.60
2019-03-11T03:36:28.279Z,63.60
2019-03-11T03:38:57.605Z,62.60
2019-03-11T03:41:27.601Z,65.60
2019-03-11T03:43:56.920Z,63.40
2019-03-11T03:46:26.209Z,63.10
2019-03-11T03:48:55.534Z,62.20
2019-03-11T03:51:24.861Z,63.30
2019-03-11T03:54:13.528Z,63.50
2019-03-11T03:56:42.923Z,63.00
2019-03-11T03:59:12.223Z,64.00
2019-03-11T04:01:41.557Z,63.40
2019-03-11T04:04:10.854Z,64.40
2019-03-11T04:06:40.190Z,63.30
2019-03-11T04:09:09.477Z,63.30
2019-03-11T04:11:38.945Z,63.30
2019-03-11T04:14:08.409Z,63.30
2019-03-11T04:16:37.795Z,63.40
2019-03-11T04:19:07.103Z,64.00
2019-03-11T04:21:36.410Z,62.60
2019-03-11T04:24:05.701Z,62.00
2019-03-11T04:26:35.014Z,62.10
2019-03-11T04:29:04.495Z,62.60
2019-03-11T04:31:33.795Z,62.60
2019-03-11T04:34:03.098Z,61.80
2019-03-11T04:36:32.421Z,61.40
2019-03-11T04:39:01.745Z,62.20
2019-03-11T04:41:34.333Z,62.20
2019-03-11T04:44:06.989Z,62.40
2019-03-11T04:46:36.485Z,63.90
2019-03-11T04:49:05.808Z,64.90
2019-03-11T04:51:37.983Z,63.60
2019-03-11T04:54:07.280Z,64.10
2019-03-11T04:56:36.688Z,64.70
2019-03-11T04:59:13.403Z,65.40
2019-03-11T05:01:45.652Z,65.10
2019-03-11T05:04:17.663Z,65.60
2019-03-11T05:06:46.978Z,65.80
2019-03-11T05:09:16.267Z,66.10
2019-03-11T05:11:45.588Z,67.10
2019-03-11T05:14:14.892Z,67.00
2019-03-11T05:16:44.205Z,69.00
2019-03-11T05:19:13.509Z,73.00
2019-03-11T05:21:45.829Z,77.20
2019-03-11T05:24:15.116Z,80.60
2019-03-11T05:26:44.445Z,83.60
2019-03-11T05:29:13.765Z,84.70
2019-03-11T05:31:43.185Z,84.90
2019-03-11T05:34:14.039Z,86.60
2019-03-11T05:37:08.173Z,88.10
2019-03-11T05:39:49.682Z,88.10
2019-03-11T05:42:18.990Z,89.20
2019-03-11T05:44:48.314Z,88.90
2019-03-11T05:47:20.518Z,88.40
2019-03-11T05:49:49.838Z,89.70
2019-03-11T05:52:19.161Z,90.50
2019-03-11T05:54:48.480Z,90.80
2019-03-11T05:57:17.781Z,91.00
2019-03-11T05:59:47.096Z,91.50
2019-03-11T06:02:16.424Z,91.30
2019-03-11T06:04:45.732Z,91.70
2019-03-11T06:07:15.051Z,92.50
2019-03-11T06:09:44.385Z,92.70
2019-03-11T06:12:15.236Z,91.90
2019-03-11T06:14:43.864Z,92.50
2019-03-11T06:17:13.088Z,92.00
2019-03-11T06:19:42.403Z,92.60
2019-03-11T06:22:17.896Z,93.20
2019-03-11T06:24:47.241Z,92.80
2019-03-11T06:27:16.546Z,92.80
2019-03-11T06:29:45.934Z,92.30
2019-03-11T06:32:15.220Z,92.10
2019-03-11T06:34:47.395Z,91.90
2019-03-11T06:37:15.569Z,92.00
2019-03-11T06:39:44.867Z,92.00
2019-03-11T06:42:14.179Z,92.20
2019-03-11T06:44:45.015Z,92.10
2019-03-11T06:47:15.420Z,92.40
2019-03-11T06:49:44.714Z,91.70
2019-03-11T06:52:14.044Z,91.20
2019-03-11T06:54:43.346Z,91.80
2019-03-11T06:57:12.909Z,91.40
2019-03-11T06:59:42.228Z,91.10
2019-03-11T07:02:11.554Z,91.10
2019-03-11T07:04:42.229Z,91.00
2019-03-11T07:07:11.545Z,91.50
2019-03-11T07:09:41.839Z,91.30
2019-03-11T07:12:11.224Z,90.30
2019-03-11T07:14:40.595Z,87.80
2019-03-11T07:17:09.925Z,88.20
2019-03-11T07:19:39.215Z,85.50
2019-03-11T07:22:08.536Z,86.00
2019-03-11T07:24:37.870Z,81.60
2019-03-11T07:27:07.204Z,82.40
2019-03-11T07:29:36.642Z,83.50
2019-03-11T07:32:05.967Z,81.80
2019-03-11T07:34:35.285Z,81.30
2019-03-11T07:37:04.676Z,82.50
2019-03-11T07:39:53.395Z,80.60
2019-03-11T07:42:22.692Z,81.20
2019-03-11T07:44:52.018Z,80.30
2019-03-11T07:47:21.306Z,79.70
2019-03-11T07:49:50.796Z,80.80
2019-03-11T07:52:20.117Z,78.80
2019-03-11T07:54:49.433Z,80.10
2019-03-11T07:57:18.759Z,77.60
2019-03-11T07:59:48.069Z,79.30
2019-03-11T08:02:18.334Z,78.90
2019-03-11T08:04:48.040Z,78.80
2019-03-11T08:07:17.358Z,78.50
2019-03-11T08:09:46.668Z,76.90
2019-03-11T08:12:16.057Z,78.10
2019-03-11T08:14:45.347Z,79.60
2019-03-11T08:17:14.664Z,75.90
2019-03-11T08:19:51.019Z,78.00
2019-03-11T08:22:20.368Z,75.10
2019-03-11T08:24:49.703Z,73.80
2019-03-11T08:27:19.022Z,73.50
2019-03-11T08:29:48.317Z,75.60
2019-03-11T08:32:17.635Z,73.00
2019-03-11T08:34:46.929Z,73.50
2019-03-11T08:37:16.314Z,73.80
2019-03-11T08:39:45.637Z,74.10
2019-03-11T08:42:15.048Z,74.00
2019-03-11T08:44:44.363Z,75.30
2019-03-11T08:47:13.693Z,71.70
2019-03-11T08:49:42.991Z,71.60
2019-03-11T08:52:12.312Z,68.80
2019-03-11T08:54:41.625Z,67.10
2019-03-11T08:57:10.948Z,67.00
2019-03-11T08:59:40.344Z,63.90
2019-03-11T09:02:09.728Z,62.30
2019-03-11T09:04:43.659Z,63.70
2019-03-11T09:07:14.056Z,61.20
2019-03-11T09:09:43.377Z,60.80
2019-03-11T09:12:12.706Z,62.00
2019-03-11T09:14:42.024Z,62.10
2019-03-11T09:30:58.304Z,59.30
2019-03-11T09:33:27.700Z,58.60
2019-03-11T09:35:56.989Z,60.10
2019-03-11T09:38:26.305Z,62.40
2019-03-11T09:40:55.605Z,62.30
2019-03-11T09:43:27.072Z,62.00
2019-03-11T09:45:55.996Z,62.60
2019-03-11T09:48:25.320Z,63.30
2019-03-11T09:50:54.682Z,62.30
2019-03-11T09:53:24.077Z,61.20
2019-03-11T09:55:53.491Z,59.40
2019-03-11T09:58:22.812Z,59.70
2019-03-11T10:00:52.148Z,57.70
2019-03-11T10:03:21.572Z,58.70
2019-03-11T10:05:51.976Z,56.70
2019-03-11T10:08:21.267Z,57.40
2019-03-11T10:10:50.782Z,58.10
2019-03-11T10:13:21.159Z,59.00
2019-03-11T10:15:50.468Z,58.20
2019-03-11T10:18:19.793Z,59.30
2019-03-11T10:20:49.089Z,58.80
2019-03-11T10:23:18.443Z,57.00
2019-03-11T10:25:47.745Z,56.70
2019-03-11T10:28:17.072Z,58.70
2019-03-11T10:30:46.369Z,57.40
2019-03-11T10:33:15.698Z,56.80
2019-03-11T10:35:45.061Z,55.60
2019-03-11T10:38:14.376Z,55.50
2019-03-11T10:40:43.713Z,54.20
2019-03-11T10:43:13.000Z,55.10
2019-03-11T10:45:42.320Z,55.90
2019-03-11T10:48:11.646Z,54.80
2019-03-11T10:50:41.047Z,55.20
2019-03-11T10:53:10.526Z,55.70
2019-03-11T10:55:39.821Z,53.90
2019-03-11T10:58:09.140Z,56.30
2019-03-11T11:00:38.508Z,54.70
2019-03-11T11:03:07.900Z,54.30
2019-03-11T11:05:37.220Z,54.70
2019-03-11T11:08:06.595Z,56.30
2019-03-11T11:10:35.903Z,56.00
2019-03-11T11:13:05.324Z,55.40
2019-03-11T11:15:34.992Z,57.50
2019-03-11T11:18:04.460Z,54.50
2019-03-11T11:20:33.756Z,57.60
2019-03-11T11:23:03.204Z,57.10
2019-03-11T11:25:32.662Z,58.60
2019-03-11T11:28:01.980Z,56.50
2019-03-11T11:30:32.233Z,56.70
2019-03-11T11:35:42.200Z,53.80
2019-03-11T11:38:11.501Z,53.10
2019-03-11T11:40:40.816Z,53.10
2019-03-11T11:43:10.104Z,53.20
2019-03-11T11:45:39.456Z,52.00
2019-03-11T11:48:08.785Z,52.40
2019-03-11T11:50:38.149Z,51.90
2019-03-11T11:53:07.461Z,51.90
2019-03-11T11:55:36.762Z,52.20
2019-03-11T11:58:06.087Z,52.80
2019-03-11T12:00:40.102Z,51.80
2019-03-11T12:03:09.422Z,50.20
2019-03-11T12:05:38.768Z,51.60
2019-03-11T12:08:08.048Z,52.80
2019-03-11T12:10:37.366Z,54.60
2019-03-11T12:13:06.822Z,53.20
2019-03-11T12:15:36.228Z,54.80
2019-03-11T12:18:05.599Z,55.40
2019-03-11T12:20:34.984Z,54.20
2019-03-11T12:23:04.543Z,55.00
2019-03-11T12:25:33.830Z,55.10
2019-03-11T12:28:03.597Z,55.20
2019-03-11T12:30:34.129Z,55.20
2019-03-11T12:33:03.750Z,56.00
2019-03-11T12:35:33.119Z,53.80
2019-03-11T12:38:02.517Z,54.00
2019-03-11T12:40:31.900Z,54.00
2019-03-11T12:43:01.219Z,54.40
2019-03-11T12:45:30.693Z,56.20
2019-03-11T12:48:00.015Z,53.60
2019-03-11T12:50:33.572Z,54.80
2019-03-11T12:53:02.923Z,52.20
2019-03-11T12:55:32.342Z,53.30
2019-03-11T12:58:01.667Z,51.90
2019-03-11T13:00:30.985Z,52.00
2019-03-11T13:03:00.320Z,53.90
2019-03-11T13:05:29.701Z,54.30
2019-03-11T13:07:59.066Z,56.00
2019-03-11T13:10:30.336Z,58.20
2019-03-11T13:12:59.635Z,61.10
2019-03-11T13:15:29.215Z,62.60
2019-03-11T13:18:18.049Z,59.40
2019-03-11T13:20:47.380Z,57.20
2019-03-11T13:23:16.673Z,56.60
2019-03-11T13:25:45.988Z,56.50
2019-03-11T13:28:15.402Z,57.20
2019-03-11T13:30:44.699Z,55.90
2019-03-11T13:33:14.043Z,56.10
2019-03-11T13:35:43.344Z,56.30
2019-03-11T13:38:12.742Z,55.70
2019-03-11T13:40:42.131Z,57.50
2019-03-11T13:43:11.503Z,58.30
2019-03-11T13:45:40.916Z,58.30
2019-03-11T13:48:10.794Z,57.80
2019-03-11T13:50:40.117Z,56.30
2019-03-11T13:53:09.479Z,53.90
2019-03-11T13:55:38.872Z,50.60
2019-03-11T13:58:08.189Z,50.20
2019-03-11T14:00:37.490Z,51.30
2019-03-11T14:03:06.878Z,52.40
2019-03-11T14:05:36.212Z,51.70
2019-03-11T14:08:06.817Z,51.60
2019-03-11T14:10:36.173Z,53.00
2019-03-11T14:13:05.494Z,55.40
2019-03-11T14:15:34.814Z,54.90
2019-03-11T14:18:04.357Z,55.30
2019-03-11T14:20:33.760Z,57.00
2019-03-11T14:23:03.183Z,60.20
2019-03-11T14:25:32.512Z,61.90
2019-03-11T14:28:01.820Z,63.60
2019-03-11T14:30:31.386Z,66.50
2019-03-11T14:33:00.784Z,68.10
2019-03-11T14:35:30.262Z,70.70
2019-03-11T14:37:59.574Z,73.60
2019-03-11T14:40:29.026Z,74.20
2019-03-11T14:42:58.336Z,70.70
2019-03-11T14:45:27.685Z,71.00
2019-03-11T14:47:57.137Z,70.50
2019-03-11T14:50:26.488Z,70.80
2019-03-11T14:52:55.827Z,70.00
2019-03-11T14:55:25.231Z,71.80
2019-03-11T14:57:54.561Z,73.60
2019-03-11T15:00:23.915Z,73.50
2019-03-11T15:02:53.206Z,68.30
2019-03-11T15:05:22.615Z,66.50
2019-03-11T15:07:52.061Z,61.30
2019-03-11T15:10:21.672Z,59.40
2019-03-11T15:12:50.970Z,60.60
2019-03-11T15:15:25.016Z,60.10
2019-03-11T15:17:54.383Z,59.50
2019-03-11T15:20:23.848Z,61.10
2019-03-11T15:22:53.136Z,59.70
2019-03-11T15:25:22.643Z,59.10
2019-03-11T15:27:51.939Z,60.90
2019-03-11T15:30:23.481Z,61.20
2019-03-11T15:32:53.014Z,63.80
2019-03-11T15:35:45.772Z,65.00
2019-03-11T15:38:38.129Z,66.60
2019-03-11T15:41:07.467Z,65.80
2019-03-11T15:43:36.764Z,71.00
2019-03-11T15:46:06.077Z,73.70
2019-03-11T15:48:35.397Z,76.20
2019-03-11T15:51:05.755Z,76.90
2019-03-11T15:53:35.188Z,78.40
2019-03-11T15:56:04.535Z,77.80
2019-03-11T15:58:33.924Z,77.70
2019-03-11T16:01:03.286Z,78.40
2019-03-11T16:03:36.204Z,79.20
2019-03-11T16:06:03.669Z,80.20
2019-03-11T16:08:33.068Z,80.20
2019-03-11T16:11:02.359Z,80.50
2019-03-11T16:13:31.820Z,79.70
2019-03-11T16:16:01.247Z,79.60
2019-03-11T16:18:30.556Z,80.90
2019-03-11T16:20:59.895Z,80.60
2019-03-11T16:23:29.215Z,80.60
2019-03-11T16:25:58.605Z,79.00
2019-03-11T16:28:28.192Z,77.30
2019-03-11T16:30:57.696Z,77.30
2019-03-11T16:33:26.997Z,77.80
2019-03-11T16:35:56.321Z,77.50
2019-03-11T16:38:25.668Z,77.50
2019-03-11T16:40:54.951Z,78.50
2019-03-11T16:43:24.383Z,78.80
2019-03-11T16:45:53.744Z,78.20
2019-03-11T16:48:23.087Z,78.10
2019-03-11T16:50:52.386Z,78.20
2019-03-11T16:53:21.708Z,78.30
2019-03-11T16:55:52.696Z,77.40
2019-03-11T16:58:22.009Z,76.30
2019-03-11T17:00:52.951Z,76.20
2019-03-11T17:03:22.401Z,74.20
2019-03-11T17:05:51.690Z,74.40
2019-03-11T17:08:21.007Z,74.30
2019-03-11T17:10:50.318Z,74.40
2019-03-11T17:13:19.719Z,73.80
2019-03-11T17:15:49.096Z,73.30
2019-03-11T17:18:18.416Z,74.70
2019-03-11T17:20:47.823Z,75.50
2019-03-11T17:23:17.126Z,73.20
2019-03-11T17:25:46.468Z,73.40
2019-03-11T17:28:15.824Z,74.30
2019-03-11T17:30:45.152Z,75.20
2019-03-11T17:33:14.632Z,76.90
2019-03-11T17:35:44.021Z,77.20
2019-03-11T17:38:13.335Z,78.60
2019-03-11T17:40:42.817Z,79.90
2019-03-11T17:43:12.234Z,80.60
2019-03-11T17:45:41.620Z,81.80
2019-03-11T17:48:10.990Z,82.90
2019-03-11T17:50:40.317Z,83.10
2019-03-11T17:53:19.594Z,83.80
2019-03-11T17:55:41.097Z,84.50
2019-03-11T17:58:10.658Z,84.90
2019-03-11T18:00:55.076Z,85.00
2019-03-11T18:03:15.603Z,85.20
2019-03-11T18:05:45.105Z,85.50
2019-03-11T18:08:14.706Z,85.50
2019-03-11T18:10:44.069Z,85.60
2019-03-11T18:13:13.466Z,85.80
2019-03-11T18:15:42.970Z,86.20
2019-03-11T18:18:12.388Z,86.50
2019-03-11T18:20:41.705Z,86.50
2019-03-11T18:23:11.213Z,86.50
2019-03-11T18:25:40.508Z,86.10
2019-03-11T18:28:10.116Z,86.10
2019-03-11T18:30:39.623Z,86.70
2019-03-11T18:33:09.136Z,86.20
2019-03-11T18:35:38.722Z,87.10
2019-03-11T18:38:08.895Z,86.80
2019-03-11T18:40:38.365Z,86.40
2019-03-11T18:43:07.737Z,85.60
2019-03-11T18:45:37.104Z,85.50
2019-03-11T18:48:06.549Z,85.80
2019-03-11T18:50:35.927Z,85.90
2019-03-11T18:53:05.318Z,86.30
2019-03-11T18:55:34.749Z,85.50
2019-03-11T18:58:04.444Z,85.90
2019-03-11T19:00:34.890Z,85.60
2019-03-11T19:03:16.118Z,85.60
2019-03-11T19:05:45.471Z,86.20
2019-03-11T19:08:15.983Z,86.10
2019-03-11T19:10:45.357Z,86.40
2019-03-11T19:13:20.617Z,86.80
2019-03-11T19:15:49.916Z,86.00
2019-03-11T19:18:19.393Z,85.80
2019-03-11T19:20:48.731Z,85.70
2019-03-11T19:23:18.082Z,85.00
2019-03-11T19:25:54.547Z,85.40
2019-03-11T19:28:43.169Z,85.30
2019-03-11T19:31:12.478Z,85.30
2019-03-11T19:33:41.903Z,85.60
2019-03-11T19:36:11.330Z,85.80
2019-03-11T19:38:40.701Z,85.60
2019-03-11T19:41:11.222Z,85.80
2019-03-11T19:43:40.563Z,85.40
2019-03-11T19:46:09.972Z,86.30
2019-03-11T19:48:39.725Z,85.60
2019-03-11T19:51:09.280Z,85.40
2019-03-11T19:53:38.770Z,84.40
2019-03-11T19:56:08.128Z,85.40
2019-03-11T19:58:37.545Z,85.00
2019-03-11T20:01:07.501Z,85.80
2019-03-11T20:03:37.113Z,85.60
2019-03-11T20:06:08.181Z,85.20
2019-03-11T20:08:37.722Z,85.30
2019-03-11T20:11:08.840Z,85.70
2019-03-11T20:13:38.473Z,85.50
2019-03-11T20:16:08.714Z,85.70
2019-03-11T20:18:39.102Z,86.10
2019-03-11T20:21:09.887Z,87.00
2019-03-11T20:23:39.387Z,86.80
2019-03-11T20:26:10.764Z,87.00
2019-03-11T20:28:39.530Z,87.20
2019-03-11T20:31:09.845Z,87.20
2019-03-11T20:33:39.339Z,86.90
2019-03-11T20:36:20.101Z,86.30
2019-03-11T20:38:42.747Z,87.00
2019-03-11T20:41:12.879Z,87.90
2019-03-11T20:43:46.406Z,88.20
2019-03-11T20:46:15.815Z,87.10
2019-03-11T20:48:45.470Z,87.80
2019-03-11T20:51:15.172Z,87.40
2019-03-11T20:53:45.309Z,87.90
2019-03-11T20:56:14.780Z,88.20
2019-03-11T20:58:44.377Z,87.80
2019-03-11T21:01:14.214Z,87.60
2019-03-11T21:03:43.579Z,87.90
2019-03-11T21:06:13.013Z,88.50
2019-03-11T21:08:45.397Z,88.60
2019-03-11T21:11:13.497Z,89.20
2019-03-11T21:13:42.924Z,89.30
2019-03-11T21:16:12.553Z,89.90
2019-03-11T21:18:41.989Z,89.40
2019-03-11T21:21:11.317Z,89.50
2019-03-11T21:23:40.727Z,90.00
2019-03-11T21:26:10.227Z,89.10
2019-03-11T21:28:39.771Z,89.20
2019-03-11T21:31:09.223Z,89.60
2019-03-11T21:33:38.541Z,89.70
2019-03-11T21:36:07.978Z,90.10
2019-03-11T21:38:37.334Z,89.60
2019-03-11T21:41:06.781Z,89.30
2019-03-11T21:43:36.409Z,89.20
2019-03-11T21:46:05.830Z,89.70
2019-03-11T21:48:35.220Z,89.30
2019-03-11T21:51:04.822Z,88.10
2019-03-11T21:53:34.233Z,88.00
2019-03-11T21:56:03.624Z,87.30
2019-03-11T21:58:33.076Z,86.40
2019-03-11T22:01:02.611Z,86.60
2019-03-11T22:03:32.043Z,86.80
2019-03-11T22:06:01.436Z,86.00
2019-03-11T22:08:30.809Z,85.50
2019-03-11T22:11:00.135Z,85.70
2019-03-11T22:13:29.608Z,85.30
2019-03-11T22:15:58.937Z,84.50
2019-03-11T22:18:28.235Z,84.50
2019-03-11T22:20:57.555Z,85.10
2019-03-11T22:23:26.899Z,85.20
2019-03-11T22:25:57.386Z,84.40
2019-03-11T22:28:26.715Z,84.50
2019-03-11T22:30:56.009Z,84.40
2019-03-11T22:33:26.404Z,84.20
2019-03-11T22:35:55.829Z,84.70
2019-03-11T22:38:25.232Z,85.20
2019-03-11T22:40:54.523Z,85.30
2019-03-11T22:43:23.849Z,85.50
2019-03-11T22:45:53.126Z,85.60
2019-03-11T22:48:22.444Z,85.60
2019-03-11T22:50:51.733Z,85.50
2019-03-11T22:53:21.095Z,86.20
2019-03-11T22:55:50.399Z,86.90
2019-03-11T22:58:30.249Z,86.90
2019-03-11T23:01:01.249Z,86.80
2019-03-11T23:03:32.161Z,88.30
2019-03-11T23:06:01.791Z,88.30
2019-03-11T23:08:31.260Z,89.60
2019-03-11T23:11:00.626Z,89.30
2019-03-11T23:13:29.912Z,89.40
2019-03-11T23:15:59.237Z,89.20
2019-03-11T23:18:28.539Z,89.60
2019-03-11T23:20:57.868Z,89.70
2019-03-11T23:23:27.165Z,90.00
2019-03-11T23:25:56.491Z,90.00
2019-03-11T23:28:27.025Z,89.90
2019-03-11T23:30:56.312Z,90.00
2019-03-11T23:33:25.658Z,90.00
2019-03-11T23:35:55.011Z,89.70
2019-03-11T23:38:24.375Z,89.60
2019-03-11T23:40:53.669Z,90.20
2019-03-11T23:43:23.053Z,89.40
2019-03-11T23:45:52.350Z,89.80
2019-03-11T23:48:21.679Z,90.10
2019-03-11T23:50:51.012Z,90.50
2019-03-11T23:53:20.390Z,90.00
2019-03-11T23:55:49.712Z,89.80
2019-03-11T23:58:19.017Z,90.10
